WSSS/SIN METAR and TAF weather

Enter ICAO airport designator
Station Type Date Time Source
WSSS METAR 2020/06/06 01:00 UTC NOAA

WSSS 060100Z VRB04KT 9999 FEW017 SCT170 BKN270 27/24 Q1011 NOSIG


Station Type Date Time Source
WSSS Decoded METAR 2020/06/06 01:00 UTC NOAA

Singapore / Changi Airport, Singapore (WSSS) 01-22N 103-59E 16M
Jun 05, 2020 - 09:00 PM EDT / 2020.06.06 0100 UTC
Wind: Variable at 5 MPH (4 KT):0
Visibility: greater than 7 mile(s):0
Sky conditions: mostly cloudy
Temperature: 80 F (27 C)
Dew Point: 75 F (24 C)
Relative Humidity: 83%
Pressure (altimeter): 29.85 in. Hg (1011 hPa)
ob: WSSS 060100Z VRB04KT 9999 FEW017 SCT170 BKN270 27/24 Q1011 NOSIG
cycle: 1

Station Type Date Time Source
WSSS TAF 2020/06/05 18:08 UTC NOAA

TAF WSSS 051700Z 0518/0700 20010KT 9999 FEW015 SCT020

Example: see airport list